createdAt,value
2023-04-02T00:01:14.196Z,52.40
2023-04-02T00:03:44.245Z,52.50
2023-04-02T00:04:25.481Z,50.30
2023-04-02T00:06:13.840Z,52.60
2023-04-02T00:08:44.309Z,52.30
2023-04-02T00:09:41.185Z,50.20
2023-04-02T00:11:14.548Z,52.30
2023-04-02T00:13:44.826Z,52.30
2023-04-02T00:14:56.171Z,50.20
2023-04-02T00:16:15.177Z,52.20
2023-04-02T00:18:45.431Z,52.10
2023-04-02T00:20:11.164Z,49.70
2023-04-02T00:21:15.693Z,52.10
2023-04-02T00:23:45.487Z,52.10
2023-04-02T00:25:26.167Z,50.00
2023-04-02T00:26:15.813Z,52.10
2023-04-02T00:28:46.211Z,52.10
2023-04-02T00:30:41.442Z,49.90
2023-04-02T00:31:16.044Z,52.10
2023-04-02T00:33:45.411Z,52.10
2023-04-02T00:35:57.215Z,49.90
2023-04-02T00:36:15.548Z,52.00
2023-04-02T00:38:46.695Z,52.00
2023-04-02T00:41:12.234Z,49.50
2023-04-02T00:41:17.445Z,52.00
2023-04-02T00:43:47.739Z,51.90
2023-04-02T00:46:17.445Z,51.80
2023-04-02T00:46:27.277Z,49.80
2023-04-02T00:48:45.744Z,51.90
2023-04-02T00:51:15.689Z,51.70
2023-04-02T00:51:43.131Z,49.20
2023-04-02T00:53:45.575Z,51.70
2023-04-02T00:56:15.472Z,51.80
2023-04-02T00:56:58.521Z,49.50
2023-04-02T00:58:45.357Z,51.70
2023-04-02T01:01:15.298Z,51.70
2023-04-02T01:02:14.203Z,49.40
2023-04-02T01:03:45.955Z,51.70
2023-04-02T01:06:16.076Z,51.60
2023-04-02T01:07:29.153Z,49.30
2023-04-02T01:08:45.437Z,51.60
2023-04-02T01:11:14.034Z,51.60
2023-04-02T01:12:43.884Z,49.20
2023-04-02T01:13:42.649Z,51.50
2023-04-02T01:16:11.979Z,51.60
2023-04-02T01:17:59.138Z,49.10
2023-04-02T01:18:41.316Z,51.60
2023-04-02T01:21:11.643Z,51.50
2023-04-02T01:23:14.493Z,49.00
2023-04-02T01:23:42.121Z,51.40
2023-04-02T01:26:11.551Z,51.30
2023-04-02T01:28:30.150Z,48.60
2023-04-02T01:28:41.581Z,51.30
2023-04-02T01:31:11.751Z,51.30
2023-04-02T01:33:40.259Z,51.30
2023-04-02T01:33:44.938Z,48.90
2023-04-02T01:36:09.230Z,51.30
2023-04-02T01:38:39.490Z,51.20
2023-04-02T01:39:00.198Z,48.80
2023-04-02T01:41:09.291Z,51.20
2023-04-02T01:43:39.298Z,51.20
2023-04-02T01:44:15.174Z,48.60
2023-04-02T01:46:09.122Z,51.10
2023-04-02T01:48:39.132Z,51.00
2023-04-02T01:49:30.128Z,48.50
2023-04-02T01:51:14.497Z,50.90
2023-04-02T01:53:44.462Z,51.10
2023-04-02T01:54:45.102Z,48.30
2023-04-02T01:56:14.949Z,50.90
2023-04-02T01:58:44.490Z,50.90
2023-04-02T02:00:00.185Z,48.30
2023-04-02T02:01:13.350Z,50.80
2023-04-02T02:03:44.463Z,50.90
2023-04-02T02:05:21.127Z,48.30
2023-04-02T02:06:14.450Z,50.70
2023-04-02T02:08:44.857Z,50.60
2023-04-02T02:10:38.158Z,47.90
2023-04-02T02:11:13.193Z,50.70
2023-04-02T02:13:43.072Z,50.70
2023-04-02T02:15:53.468Z,48.20
2023-04-02T02:16:13.337Z,50.60
2023-04-02T02:18:43.236Z,50.60
2023-04-02T02:21:09.514Z,48.20
2023-04-02T02:21:13.061Z,50.60
2023-04-02T02:23:43.377Z,50.50
2023-04-02T02:26:13.272Z,50.60
2023-04-02T02:26:25.181Z,48.20
2023-04-02T02:28:43.243Z,50.60
2023-04-02T02:31:13.154Z,50.50
2023-04-02T02:31:41.184Z,47.90
2023-04-02T02:33:44.351Z,50.50
2023-04-02T02:36:13.885Z,50.50
2023-04-02T02:36:56.217Z,47.80
2023-04-02T02:38:43.227Z,50.50
2023-04-02T02:41:18.627Z,50.50
2023-04-02T02:42:11.224Z,47.80
2023-04-02T02:43:50.928Z,50.50
2023-04-02T02:46:23.486Z,50.40
2023-04-02T02:47:26.206Z,47.80
2023-04-02T02:48:54.088Z,50.50
2023-04-02T02:51:22.411Z,50.30
2023-04-02T02:52:44.159Z,47.50
2023-04-02T02:53:52.914Z,50.70
2023-04-02T02:56:22.258Z,50.30
2023-04-02T02:57:59.162Z,47.50
2023-04-02T02:58:51.216Z,50.30
2023-04-02T03:01:25.256Z,50.30
2023-04-02T03:03:20.607Z,47.60
2023-04-02T03:03:55.035Z,50.30
2023-04-02T03:06:25.733Z,50.30
2023-04-02T03:08:40.116Z,47.80
2023-04-02T03:08:59.340Z,50.30
2023-04-02T03:11:32.900Z,50.40
2023-04-02T03:14:00.209Z,47.90
2023-04-02T03:14:05.221Z,50.40
2023-04-02T03:16:34.846Z,50.30
2023-04-02T03:19:03.100Z,50.30
2023-04-02T03:19:15.197Z,47.80
2023-04-02T03:21:35.262Z,50.50
2023-04-02T03:24:05.265Z,50.40
2023-04-02T03:24:30.206Z,47.80
2023-04-02T03:26:34.215Z,50.40
2023-04-02T03:29:04.859Z,50.30
2023-04-02T03:29:45.205Z,47.70
2023-04-02T03:31:35.368Z,50.30
2023-04-02T03:34:05.399Z,50.30
2023-04-02T03:35:00.152Z,47.30
2023-04-02T03:36:35.629Z,50.20
2023-04-02T03:39:05.885Z,50.20
2023-04-02T03:40:16.147Z,47.30
2023-04-02T03:41:36.006Z,50.10
2023-04-02T03:44:05.837Z,50.20
2023-04-02T03:45:31.128Z,47.30
2023-04-02T03:46:35.569Z,50.10
2023-04-02T03:49:03.977Z,50.60
2023-04-02T03:50:46.133Z,47.50
2023-04-02T03:51:32.023Z,50.20
2023-04-02T03:54:01.669Z,50.50
2023-04-02T03:56:01.225Z,47.30
2023-04-02T03:56:31.728Z,50.30
2023-04-02T03:59:02.177Z,50.10
2023-04-02T04:01:16.155Z,47.40
2023-04-02T04:01:32.162Z,50.10
2023-04-02T04:04:02.849Z,50.00
2023-04-02T04:06:31.501Z,47.20
2023-04-02T04:06:32.678Z,50.00
2023-04-02T04:09:02.535Z,49.80
2023-04-02T04:11:32.779Z,49.70
2023-04-02T04:11:47.147Z,46.70
2023-04-02T04:14:03.759Z,49.70
2023-04-02T04:16:32.427Z,49.60
2023-04-02T04:17:02.153Z,46.60
2023-04-02T04:19:00.314Z,49.60
2023-04-02T04:21:31.518Z,49.50
2023-04-02T04:22:18.182Z,46.40
2023-04-02T04:24:07.865Z,49.50
2023-04-02T04:26:37.152Z,49.60
2023-04-02T04:27:33.223Z,46.70
2023-04-02T04:29:06.972Z,49.60
2023-04-02T04:31:37.351Z,49.40
2023-04-02T04:32:48.561Z,46.40
2023-04-02T04:34:07.740Z,49.30
2023-04-02T04:36:37.866Z,49.30
2023-04-02T04:38:04.182Z,46.40
2023-04-02T04:39:12.162Z,49.20
2023-04-02T04:41:45.632Z,49.20
2023-04-02T04:43:21.172Z,46.30
2023-04-02T04:44:16.561Z,49.20
2023-04-02T04:46:49.241Z,49.10
2023-04-02T04:48:36.506Z,46.00
2023-04-02T04:49:19.339Z,49.20
2023-04-02T04:51:48.769Z,49.10
2023-04-02T04:53:52.184Z,46.10
2023-04-02T04:54:18.793Z,49.10
2023-04-02T04:56:52.287Z,49.50
2023-04-02T04:59:11.145Z,45.90
2023-04-02T04:59:22.552Z,49.00
2023-04-02T05:01:53.913Z,48.90
2023-04-02T05:04:24.524Z,48.80
2023-04-02T05:04:27.359Z,45.80
2023-04-02T05:06:54.855Z,48.80
2023-04-02T05:09:23.886Z,48.70
2023-04-02T05:09:44.201Z,45.40
2023-04-02T05:11:54.658Z,48.70
2023-04-02T05:14:24.034Z,48.90
2023-04-02T05:15:00.194Z,46.00
2023-04-02T05:16:54.916Z,49.10
2023-04-02T05:19:25.984Z,48.90
2023-04-02T05:20:16.488Z,45.90
2023-04-02T05:21:55.332Z,49.20
2023-04-02T05:24:24.966Z,49.40
2023-04-02T05:25:34.136Z,45.80
2023-04-02T05:26:56.028Z,49.20
2023-04-02T05:29:32.637Z,49.40
2023-04-02T05:30:49.145Z,45.60
2023-04-02T05:32:08.028Z,48.90
2023-04-02T05:34:38.287Z,48.80
2023-04-02T05:36:06.197Z,45.90
2023-04-02T05:37:08.301Z,48.80
2023-04-02T05:39:38.517Z,48.80
2023-04-02T05:41:26.225Z,46.00
2023-04-02T05:42:08.337Z,48.80
2023-04-02T05:44:51.743Z,48.80
2023-04-02T05:46:45.203Z,45.90
2023-04-02T05:47:21.737Z,48.80
2023-04-02T05:49:52.638Z,48.70
2023-04-02T05:52:03.183Z,45.80
2023-04-02T05:52:22.498Z,48.70
2023-04-02T05:54:52.929Z,48.60
2023-04-02T05:57:18.394Z,45.50
2023-04-02T05:57:29.568Z,48.60
2023-04-02T06:00:09.723Z,48.50
2023-04-02T06:02:34.255Z,45.40
2023-04-02T06:02:40.724Z,48.60
2023-04-02T06:05:12.714Z,49.20
2023-04-02T06:07:43.206Z,49.40
2023-04-02T06:07:49.186Z,46.00
2023-04-02T06:10:14.137Z,48.90
2023-04-02T06:12:45.536Z,49.60
2023-04-02T06:13:05.233Z,45.30
2023-04-02T06:15:16.558Z,49.90
2023-04-02T06:17:47.721Z,50.00
2023-04-02T06:18:24.525Z,45.00
2023-04-02T06:20:16.850Z,49.00
2023-04-02T06:22:47.243Z,48.90
2023-04-02T06:23:41.137Z,44.80
2023-04-02T06:25:17.581Z,49.50
2023-04-02T06:27:49.541Z,48.70
2023-04-02T06:28:56.336Z,44.80
2023-04-02T06:30:21.876Z,49.00
2023-04-02T06:32:52.852Z,48.30
2023-04-02T06:34:12.151Z,44.90
2023-04-02T06:35:23.034Z,48.80
2023-04-02T06:37:58.498Z,49.20
2023-04-02T06:39:35.194Z,45.00
2023-04-02T06:40:30.510Z,48.40
2023-04-02T06:43:04.542Z,48.00
2023-04-02T06:44:51.177Z,45.00
2023-04-02T06:45:54.453Z,47.80
2023-04-02T06:48:44.902Z,47.70
2023-04-02T06:50:29.146Z,44.90
2023-04-02T06:51:14.652Z,47.60
2023-04-02T06:53:44.618Z,47.30
2023-04-02T06:55:44.449Z,44.60
2023-04-02T06:56:16.990Z,47.40
2023-04-02T06:58:46.954Z,47.20
2023-04-02T07:01:05.271Z,44.10
2023-04-02T07:01:17.006Z,47.10
2023-04-02T07:03:47.093Z,46.80
2023-04-02T07:06:21.978Z,46.80
2023-04-02T07:06:24.487Z,44.10
2023-04-02T07:08:52.771Z,46.70
2023-04-02T07:11:24.298Z,46.60
2023-04-02T07:11:42.179Z,44.30
2023-04-02T07:13:57.060Z,46.70
2023-04-02T07:16:27.623Z,46.70
2023-04-02T07:16:59.210Z,44.50
2023-04-02T07:18:57.621Z,46.70
2023-04-02T07:21:27.943Z,46.50
2023-04-02T07:22:15.136Z,44.20
2023-04-02T07:23:58.097Z,46.30
2023-04-02T07:26:27.081Z,45.90
2023-04-02T07:27:37.480Z,44.00
2023-04-02T07:28:56.490Z,46.20
2023-04-02T07:31:26.852Z,46.00
2023-04-02T07:32:53.570Z,44.00
2023-04-02T07:33:57.265Z,46.00
2023-04-02T07:36:27.692Z,45.70
2023-04-02T07:38:08.915Z,44.10
2023-04-02T07:38:56.701Z,45.90
2023-04-02T07:41:26.122Z,45.70
2023-04-02T07:43:24.223Z,44.00
2023-04-02T07:43:56.498Z,45.40
2023-04-02T07:46:26.362Z,45.70
2023-04-02T07:48:39.173Z,43.90
2023-04-02T07:48:56.200Z,45.60
2023-04-02T07:51:25.515Z,45.70
2023-04-02T07:53:54.153Z,44.00
2023-04-02T07:53:55.930Z,45.40
2023-04-02T07:56:26.242Z,45.40
2023-04-02T07:58:58.891Z,45.30
2023-04-02T07:59:08.926Z,44.10
2023-04-02T08:01:29.186Z,45.10
2023-04-02T08:03:59.575Z,44.70
2023-04-02T08:04:24.184Z,43.50
2023-04-02T08:06:29.942Z,44.80
2023-04-02T08:09:00.373Z,44.90
2023-04-02T08:09:39.171Z,43.90
2023-04-02T08:11:31.838Z,44.60
2023-04-02T08:14:02.289Z,44.30
2023-04-02T08:14:54.184Z,43.50
2023-04-02T08:16:32.135Z,44.00
2023-04-02T08:19:02.472Z,44.20
2023-04-02T08:20:09.539Z,43.50
2023-04-02T08:21:32.865Z,44.20
2023-04-02T08:24:02.801Z,44.20
2023-04-02T08:25:25.191Z,43.50
2023-04-02T08:26:31.190Z,44.10
2023-04-02T08:28:59.913Z,43.70
2023-04-02T08:30:40.638Z,43.40
2023-04-02T08:31:30.248Z,43.80
2023-04-02T08:34:00.702Z,43.80
2023-04-02T08:35:55.993Z,43.40
2023-04-02T08:36:30.341Z,43.70
2023-04-02T08:39:00.223Z,43.50
2023-04-02T08:41:11.155Z,43.40
2023-04-02T08:41:29.094Z,43.70
2023-04-02T08:43:58.446Z,43.80
2023-04-02T08:46:26.262Z,43.40
2023-04-02T08:46:28.862Z,43.90
2023-04-02T08:48:58.792Z,43.60
2023-04-02T08:51:28.137Z,43.60
2023-04-02T08:51:41.218Z,43.50
2023-04-02T08:53:58.501Z,43.30
2023-04-02T08:56:28.817Z,43.10
2023-04-02T08:56:56.242Z,43.20
2023-04-02T08:58:59.088Z,43.10
2023-04-02T09:01:29.404Z,43.20
2023-04-02T09:02:11.208Z,43.30
2023-04-02T09:03:59.754Z,43.10
2023-04-02T09:06:30.059Z,43.00
2023-04-02T09:07:26.244Z,43.20
2023-04-02T09:09:00.403Z,43.00
2023-04-02T09:11:30.810Z,42.80
2023-04-02T09:12:42.254Z,43.10
2023-04-02T09:14:01.088Z,42.80
2023-04-02T09:16:31.374Z,42.70
2023-04-02T09:17:59.672Z,42.90
2023-04-02T09:19:01.691Z,42.60
2023-04-02T09:21:32.128Z,42.50
2023-04-02T09:23:14.956Z,42.90
2023-04-02T09:24:03.914Z,42.40
2023-04-02T09:26:33.973Z,42.20
2023-04-02T09:28:29.996Z,42.80
2023-04-02T09:29:03.117Z,42.20
2023-04-02T09:31:31.900Z,42.10
2023-04-02T09:33:45.215Z,42.90
2023-04-02T09:34:01.353Z,42.00
2023-04-02T09:36:31.762Z,42.00
2023-04-02T09:39:00.212Z,42.80
2023-04-02T09:39:01.872Z,42.00
2023-04-02T09:41:29.920Z,42.00
2023-04-02T09:43:58.606Z,41.70
2023-04-02T09:44:14.967Z,42.80
2023-04-02T09:46:29.001Z,41.90
2023-04-02T09:48:59.343Z,42.00
2023-04-02T09:49:30.171Z,42.80
2023-04-02T09:51:29.394Z,41.90
2023-04-02T09:53:57.638Z,41.50
2023-04-02T09:54:45.247Z,43.20
2023-04-02T09:56:26.814Z,41.40
2023-04-02T09:58:55.455Z,41.20
2023-04-02T10:00:00.528Z,43.10
2023-04-02T10:01:25.857Z,41.50
2023-04-02T10:03:56.328Z,41.60
2023-04-02T10:05:30.110Z,42.30
2023-04-02T10:06:26.609Z,41.50
2023-04-02T10:08:56.861Z,41.70
2023-04-02T10:10:54.137Z,41.30
2023-04-02T10:11:30.954Z,37.90
2023-04-02T10:14:07.145Z,33.80
2023-04-02T10:16:09.194Z,41.00
2023-04-02T10:16:37.514Z,31.80
2023-04-02T10:19:07.558Z,31.10
2023-04-02T10:21:24.221Z,40.60
2023-04-02T10:21:37.878Z,30.60
2023-04-02T10:24:07.728Z,30.80
2023-04-02T10:26:36.989Z,29.90
2023-04-02T10:26:39.230Z,40.50
2023-04-02T10:29:07.180Z,29.80
2023-04-02T10:31:37.545Z,30.00
2023-04-02T10:31:54.190Z,40.20
2023-04-02T10:34:07.386Z,31.00
2023-04-02T10:36:37.855Z,32.00
2023-04-02T10:37:09.183Z,39.80
2023-04-02T10:39:07.625Z,32.80
2023-04-02T10:41:36.879Z,32.00
2023-04-02T10:42:23.954Z,39.40
2023-04-02T10:44:19.056Z,31.00
2023-04-02T10:46:50.295Z,29.70
2023-04-02T10:47:39.305Z,39.50
2023-04-02T10:49:18.596Z,29.00
2023-04-02T10:51:48.042Z,29.00
2023-04-02T10:52:56.527Z,39.20
2023-04-02T10:54:18.567Z,28.70
2023-04-02T10:56:51.202Z,27.90
2023-04-02T10:58:11.953Z,38.70
2023-04-02T10:59:21.861Z,27.60
2023-04-02T11:01:52.268Z,27.40
2023-04-02T11:03:27.280Z,38.50
2023-04-02T11:04:22.528Z,27.20
2023-04-02T11:06:58.110Z,27.00
2023-04-02T11:08:42.213Z,38.40
2023-04-02T11:09:32.590Z,26.80
2023-04-02T11:12:02.369Z,26.70
2023-04-02T11:13:57.223Z,38.30
2023-04-02T11:14:31.410Z,26.60
2023-04-02T11:16:59.532Z,26.60
2023-04-02T11:19:12.180Z,38.30
2023-04-02T11:19:28.347Z,26.70
2023-04-02T11:22:00.802Z,26.60
2023-04-02T11:24:27.170Z,38.20
2023-04-02T11:24:32.390Z,26.60
2023-04-02T11:27:02.768Z,26.70
2023-04-02T11:29:33.593Z,26.00
2023-04-02T11:29:42.464Z,38.50
2023-04-02T11:32:03.981Z,26.20
2023-04-02T11:34:34.307Z,26.40
2023-04-02T11:35:06.521Z,43.60
2023-04-02T11:37:04.296Z,26.40
2023-04-02T11:39:33.070Z,26.60
2023-04-02T11:40:22.219Z,44.80
2023-04-02T11:42:01.950Z,26.80
2023-04-02T11:44:32.295Z,27.10
2023-04-02T11:47:02.668Z,27.60
2023-04-02T11:49:33.202Z,28.10
2023-04-02T11:50:53.249Z,45.70
2023-04-02T11:52:11.442Z,28.80
2023-04-02T11:54:42.794Z,29.30
2023-04-02T11:56:08.169Z,45.20
2023-04-02T11:57:12.372Z,29.80
2023-04-02T11:59:42.785Z,30.40
2023-04-02T12:01:22.939Z,43.90
2023-04-02T12:02:13.100Z,30.70
2023-04-02T12:04:42.940Z,30.60
2023-04-02T12:06:37.952Z,43.80
2023-04-02T12:07:11.839Z,31.00
2023-04-02T12:09:42.211Z,31.20
2023-04-02T12:11:53.211Z,42.90
2023-04-02T12:12:11.633Z,31.40
2023-04-02T12:14:41.979Z,31.60
2023-04-02T12:17:09.914Z,41.70
2023-04-02T12:17:12.665Z,31.70
2023-04-02T12:19:43.185Z,31.90
2023-04-02T12:22:13.578Z,32.10
2023-04-02T12:22:25.515Z,40.50
2023-04-02T12:24:43.905Z,32.40
2023-04-02T12:27:13.804Z,32.50
2023-04-02T12:27:41.171Z,40.40
2023-04-02T12:29:43.212Z,32.60
2023-04-02T12:32:13.581Z,32.70
2023-04-02T12:32:56.554Z,40.50
2023-04-02T12:34:42.096Z,32.70
2023-04-02T12:37:11.376Z,32.60
2023-04-02T12:38:12.175Z,40.00
2023-04-02T12:39:41.666Z,32.60
2023-04-02T12:42:11.939Z,32.70
2023-04-02T12:43:27.229Z,39.50
2023-04-02T12:44:42.284Z,32.70
2023-04-02T12:47:12.236Z,32.70
2023-04-02T12:48:41.959Z,39.30
2023-04-02T12:49:41.314Z,32.60
2023-04-02T12:52:14.212Z,32.50
2023-04-02T12:53:57.192Z,38.70
2023-04-02T12:54:42.952Z,32.50
2023-04-02T12:57:11.255Z,32.60
2023-04-02T12:59:12.170Z,38.60
2023-04-02T12:59:40.761Z,32.60
2023-04-02T13:02:11.077Z,32.80
2023-04-02T13:04:27.211Z,38.70
2023-04-02T13:04:41.413Z,32.70
2023-04-02T13:07:11.839Z,32.50
2023-04-02T13:09:41.859Z,32.60
2023-04-02T13:09:41.973Z,39.00
2023-04-02T13:12:10.557Z,32.30
2023-04-02T13:14:40.843Z,32.20
2023-04-02T13:14:57.010Z,39.00
2023-04-02T13:17:11.228Z,32.30
2023-04-02T13:19:41.443Z,32.30
2023-04-02T13:20:12.205Z,39.00
2023-04-02T13:22:11.716Z,32.20
2023-04-02T13:24:41.368Z,31.70
2023-04-02T13:25:27.217Z,39.30
2023-04-02T13:27:10.137Z,31.70
2023-04-02T13:29:40.484Z,31.30
2023-04-02T13:30:42.580Z,38.90
2023-04-02T13:32:10.765Z,31.30
2023-04-02T13:34:40.724Z,31.10
2023-04-02T13:35:58.240Z,38.70
2023-04-02T13:37:10.126Z,30.70
2023-04-02T13:39:40.419Z,30.50
2023-04-02T13:41:13.179Z,38.30
2023-04-02T13:42:10.343Z,30.30
2023-04-02T13:44:40.678Z,30.80
2023-04-02T13:46:28.031Z,38.20
2023-04-02T13:47:11.010Z,30.20
2023-04-02T13:49:40.894Z,30.20
2023-04-02T13:51:43.166Z,38.00
2023-04-02T13:52:11.139Z,30.30
2023-04-02T13:54:41.509Z,30.20
2023-04-02T13:56:58.310Z,37.70
2023-04-02T13:57:11.316Z,30.00
2023-04-02T13:59:40.701Z,30.00
2023-04-02T14:02:10.925Z,29.80
2023-04-02T14:02:13.565Z,37.80
2023-04-02T14:04:41.393Z,29.40
2023-04-02T14:07:11.816Z,29.20
2023-04-02T14:07:28.950Z,38.00
2023-04-02T14:09:41.746Z,29.10
2023-04-02T14:12:11.760Z,29.10
2023-04-02T14:12:44.565Z,38.10
2023-04-02T14:14:40.495Z,28.90
2023-04-02T14:17:10.615Z,28.60
2023-04-02T14:18:00.320Z,38.30
2023-04-02T14:19:38.812Z,28.60
2023-04-02T14:22:08.175Z,28.60
2023-04-02T14:23:15.204Z,37.90
2023-04-02T14:24:38.546Z,28.60
2023-04-02T14:27:08.120Z,28.60
2023-04-02T14:28:30.278Z,37.70
2023-04-02T14:29:36.390Z,28.60
2023-04-02T14:32:05.329Z,28.50
2023-04-02T14:33:45.226Z,37.80
2023-04-02T14:34:34.461Z,28.60
2023-04-02T14:37:02.739Z,28.60
2023-04-02T14:39:00.200Z,37.80
2023-04-02T14:39:33.048Z,28.70
2023-04-02T14:42:03.413Z,28.80
2023-04-02T14:44:15.623Z,38.10
2023-04-02T14:44:33.772Z,29.70
2023-04-02T14:47:04.142Z,30.20
2023-04-02T14:49:34.497Z,30.80
2023-04-02T14:50:09.181Z,38.20
2023-04-02T14:52:04.746Z,31.00
2023-04-02T14:54:35.359Z,31.80
2023-04-02T14:55:24.221Z,38.50
2023-04-02T14:57:04.936Z,32.20
2023-04-02T14:59:35.243Z,32.80
2023-04-02T15:00:39.191Z,38.20
2023-04-02T15:02:05.621Z,33.40
2023-04-02T15:04:35.974Z,33.90
2023-04-02T15:05:54.618Z,37.80
2023-04-02T15:07:06.349Z,34.40
2023-04-02T15:09:35.768Z,34.80
2023-04-02T15:11:10.171Z,38.00
2023-04-02T15:12:06.031Z,35.30
2023-04-02T15:14:35.781Z,35.60
2023-04-02T15:16:25.232Z,38.30
2023-04-02T15:17:04.880Z,35.90
2023-04-02T15:19:33.587Z,36.00
2023-04-02T15:21:49.809Z,38.30
2023-04-02T15:22:08.133Z,36.20
2023-04-02T15:24:39.183Z,36.50
2023-04-02T15:27:14.718Z,36.70
2023-04-02T15:27:21.943Z,38.00
2023-04-02T15:29:52.378Z,37.00
2023-04-02T15:32:22.616Z,37.10
2023-04-02T15:32:40.273Z,38.00
2023-04-02T15:34:52.938Z,37.30
2023-04-02T15:37:23.442Z,37.60
2023-04-02T15:37:55.204Z,38.10
2023-04-02T15:39:53.760Z,37.80
2023-04-02T15:42:24.186Z,38.00
2023-04-02T15:43:10.258Z,38.20
2023-04-02T15:44:54.528Z,38.00
2023-04-02T15:47:24.813Z,38.10
2023-04-02T15:48:25.198Z,38.40
2023-04-02T15:49:55.135Z,38.20
2023-04-02T15:52:25.665Z,38.30
2023-04-02T15:53:40.215Z,38.20
2023-04-02T15:54:55.075Z,38.40
2023-04-02T15:57:24.908Z,38.60
2023-04-02T15:59:08.612Z,38.00
2023-04-02T15:59:55.319Z,38.60
2023-04-02T16:02:24.821Z,38.80
2023-04-02T16:04:24.284Z,38.00
2023-04-02T16:04:53.829Z,39.00
2023-04-02T16:07:24.246Z,39.10
2023-04-02T16:09:39.233Z,38.20
2023-04-02T16:09:54.285Z,39.10
2023-04-02T16:12:23.079Z,39.30
2023-04-02T16:14:52.373Z,39.30
2023-04-02T16:14:54.215Z,38.30
2023-04-02T16:17:25.338Z,39.40
2023-04-02T16:19:55.734Z,39.30
2023-04-02T16:20:09.253Z,38.20
2023-04-02T16:22:24.649Z,39.40
2023-04-02T16:24:57.253Z,39.50
2023-04-02T16:25:24.227Z,38.00
2023-04-02T16:27:25.926Z,39.60
2023-04-02T16:29:55.961Z,39.60
2023-04-02T16:30:39.369Z,37.70
2023-04-02T16:32:24.724Z,39.90
2023-04-02T16:34:57.583Z,39.90
2023-04-02T16:35:53.961Z,37.80
2023-04-02T16:37:27.971Z,40.10
2023-04-02T16:39:57.867Z,40.10
2023-04-02T16:41:09.389Z,38.00
2023-04-02T16:42:27.230Z,40.10
2023-04-02T16:44:57.246Z,40.30
2023-04-02T16:46:38.255Z,38.30
2023-04-02T16:47:25.997Z,40.30
2023-04-02T16:49:56.301Z,40.30
2023-04-02T16:51:55.520Z,38.60
2023-04-02T16:52:24.813Z,40.30
2023-04-02T16:54:53.304Z,40.50
2023-04-02T16:57:11.477Z,38.60
2023-04-02T16:57:22.106Z,40.50
2023-04-02T16:59:52.487Z,40.40
2023-04-02T17:02:22.846Z,40.50
2023-04-02T17:02:27.346Z,38.80
2023-04-02T17:04:52.801Z,41.20
2023-04-02T17:07:21.513Z,40.70
2023-04-02T17:07:43.200Z,38.90
2023-04-02T17:09:51.596Z,40.50
2023-04-02T17:12:19.599Z,40.60
2023-04-02T17:12:58.216Z,38.90
2023-04-02T17:14:48.290Z,40.90
2023-04-02T17:17:18.179Z,40.70
2023-04-02T17:18:13.219Z,38.90
2023-04-02T17:19:47.627Z,40.80
2023-04-02T17:22:17.611Z,40.80
2023-04-02T17:23:28.275Z,39.10
2023-04-02T17:24:46.314Z,40.90
2023-04-02T17:27:16.096Z,41.00
2023-04-02T17:28:43.522Z,39.10
2023-04-02T17:29:45.476Z,40.90
2023-04-02T17:32:14.427Z,41.00
2023-04-02T17:33:59.250Z,39.20
2023-04-02T17:34:43.684Z,41.00
2023-04-02T17:37:13.559Z,41.10
2023-04-02T17:39:14.185Z,39.30
2023-04-02T17:39:42.958Z,41.20
2023-04-02T17:42:13.006Z,41.30
2023-04-02T17:44:29.174Z,39.60
2023-04-02T17:44:41.789Z,41.20
2023-04-02T17:47:10.872Z,41.30
2023-04-02T17:49:39.548Z,42.10
2023-04-02T17:49:44.607Z,39.80
2023-04-02T17:52:09.858Z,41.50
2023-04-02T17:54:40.096Z,41.60
2023-04-02T17:55:00.382Z,39.70
2023-04-02T17:57:10.444Z,41.50
2023-04-02T17:59:41.058Z,41.50
2023-04-02T18:00:15.198Z,40.00
2023-04-02T18:02:10.586Z,41.80
2023-04-02T18:04:40.901Z,42.00
2023-04-02T18:05:30.291Z,40.10
2023-04-02T18:07:09.899Z,42.10
2023-04-02T18:09:39.749Z,42.30
2023-04-02T18:10:45.308Z,40.20
2023-04-02T18:12:09.165Z,42.40
2023-04-02T18:14:39.600Z,42.60
2023-04-02T18:16:00.019Z,40.30
2023-04-02T18:17:08.963Z,42.70
2023-04-02T18:19:39.382Z,42.80
2023-04-02T18:21:15.252Z,40.20
2023-04-02T18:22:12.700Z,42.90
2023-04-02T18:24:43.328Z,43.00
2023-04-02T18:26:30.187Z,40.30
2023-04-02T18:27:12.777Z,43.20
2023-04-02T18:29:41.564Z,43.40
2023-04-02T18:31:45.766Z,40.30
2023-04-02T18:32:09.870Z,43.30
2023-04-02T18:34:41.697Z,43.40
2023-04-02T18:37:00.952Z,40.40
2023-04-02T18:37:10.782Z,43.50
2023-04-02T18:39:40.632Z,43.70
2023-04-02T18:42:09.466Z,43.70
2023-04-02T18:42:16.221Z,40.60
2023-04-02T18:44:38.248Z,43.60
2023-04-02T18:47:09.129Z,43.80
2023-04-02T18:47:31.590Z,40.70
2023-04-02T18:49:38.818Z,43.80
2023-04-02T18:52:08.431Z,43.80
2023-04-02T18:52:47.184Z,40.80
2023-04-02T18:54:38.055Z,43.90
2023-04-02T18:57:06.722Z,44.00
2023-04-02T18:58:02.325Z,40.90
2023-04-02T18:59:37.721Z,44.10
2023-04-02T19:02:07.934Z,44.20
2023-04-02T19:03:18.657Z,40.90
2023-04-02T19:04:36.612Z,44.30
2023-04-02T19:07:06.970Z,44.20
2023-04-02T19:08:35.006Z,40.90
2023-04-02T19:09:37.395Z,44.30
2023-04-02T19:12:08.262Z,44.30
2023-04-02T19:13:50.210Z,41.00
2023-04-02T19:14:37.906Z,44.50
2023-04-02T19:17:07.742Z,44.40
2023-04-02T19:19:05.246Z,41.20
2023-04-02T19:19:37.062Z,44.50
2023-04-02T19:22:06.923Z,44.60
2023-04-02T19:24:20.035Z,41.20
2023-04-02T19:24:36.312Z,44.60
2023-04-02T19:27:08.780Z,44.70
2023-04-02T19:29:35.584Z,41.30
2023-04-02T19:29:39.117Z,44.70
2023-04-02T19:32:09.580Z,44.90
2023-04-02T19:34:39.911Z,44.90
2023-04-02T19:34:51.233Z,41.30
2023-04-02T19:37:09.809Z,45.10
2023-04-02T19:39:38.806Z,43.50
2023-04-02T19:40:06.263Z,42.60
2023-04-02T19:42:08.339Z,43.90
2023-04-02T19:44:37.397Z,44.00
2023-04-02T19:45:21.298Z,45.90
2023-04-02T19:47:05.714Z,44.20
2023-04-02T19:49:34.668Z,44.30
2023-04-02T19:50:35.986Z,46.50
2023-04-02T19:52:04.080Z,44.30
2023-04-02T19:54:33.542Z,44.40
2023-04-02T19:55:51.005Z,46.70
2023-04-02T19:57:04.808Z,44.30
2023-04-02T19:59:38.383Z,44.40
2023-04-02T20:01:06.443Z,46.80
2023-04-02T20:02:08.736Z,44.50
2023-04-02T20:04:39.239Z,44.60
2023-04-02T20:06:22.714Z,46.90
2023-04-02T20:07:09.239Z,44.50
2023-04-02T20:09:37.434Z,44.80
2023-04-02T20:11:38.375Z,46.90
2023-04-02T20:12:06.781Z,44.80
2023-04-02T20:14:37.086Z,44.80
2023-04-02T20:16:53.596Z,46.70
2023-04-02T20:17:06.132Z,44.80
2023-04-02T20:19:36.491Z,44.70
2023-04-02T20:22:06.908Z,44.80
2023-04-02T20:22:09.260Z,47.10
2023-04-02T20:24:37.291Z,44.80
2023-04-02T20:27:07.696Z,44.80
2023-04-02T20:27:24.300Z,47.60
2023-04-02T20:29:36.652Z,44.80
2023-04-02T20:32:06.129Z,44.70
2023-04-02T20:32:39.246Z,47.50
2023-04-02T20:37:08.395Z,44.80
2023-04-02T20:37:54.013Z,47.50
2023-04-02T20:39:37.511Z,44.80
2023-04-02T20:42:10.399Z,44.80
2023-04-02T20:43:09.517Z,47.50
2023-04-02T20:44:39.863Z,44.80
2023-04-02T20:47:08.293Z,45.00
2023-04-02T20:48:25.249Z,47.40
2023-04-02T20:49:37.046Z,45.00
2023-04-02T20:52:07.811Z,44.90
2023-04-02T20:53:40.244Z,47.10
2023-04-02T20:54:38.145Z,44.80
2023-04-02T20:57:08.495Z,44.90
2023-04-02T20:58:55.598Z,46.70
2023-04-02T20:59:38.793Z,44.80
2023-04-02T21:02:09.098Z,44.80
2023-04-02T21:04:11.206Z,46.90
2023-04-02T21:04:39.142Z,45.10
2023-04-02T21:07:08.593Z,44.90
2023-04-02T21:09:26.313Z,46.70
2023-04-02T21:09:38.891Z,44.90
2023-04-02T21:12:08.376Z,44.90
2023-04-02T21:14:39.595Z,44.90
2023-04-02T21:14:41.029Z,46.70
2023-04-02T21:17:09.681Z,44.90
2023-04-02T21:19:38.447Z,44.90
2023-04-02T21:19:56.240Z,46.60
2023-04-02T21:22:08.737Z,44.90
2023-04-02T21:24:38.736Z,45.00
2023-04-02T21:25:10.989Z,46.50
2023-04-02T21:27:07.501Z,45.00
2023-04-02T21:29:37.451Z,45.10
2023-04-02T21:30:26.271Z,46.40
2023-04-02T21:32:14.481Z,45.10
2023-04-02T21:34:51.019Z,45.00
2023-04-02T21:35:41.254Z,46.40
2023-04-02T21:37:20.352Z,45.60
2023-04-02T21:39:49.936Z,45.10
2023-04-02T21:40:56.254Z,46.40
2023-04-02T21:42:18.694Z,45.10
2023-04-02T21:44:48.909Z,45.10
2023-04-02T21:46:11.027Z,46.50
2023-04-02T21:47:18.980Z,45.10
2023-04-02T21:49:47.680Z,45.20
2023-04-02T21:51:26.259Z,46.50
2023-04-02T21:52:18.046Z,45.00
2023-04-02T21:54:47.469Z,45.20
2023-04-02T21:56:41.554Z,46.40